Flight Track Log - Related Links

Times and Time Zones

All times are in EDT time to prevent confusion due to time zone crossing. See the GJS3618 flight status page for this flight to view local times or setup timezone preferences in your user account.

Time Position Orientation Groundspeed Altitude Reporting Facility
EDT Latitude Longitude Course Direction KTS MPH feet Rate Location/Type
Mon 09:47:10 PM 39.9333 -104.6333 66° East 222 255 8,400  Level Denver TRACON
Mon 09:48:02 PM 39.9550 -104.5650 68° East 266 306 9,300 650 Climbing Denver Center
Mon 09:49:10 PM 39.9500 -104.4500 93° East 289 333 9,700 290 Climbing Denver TRACON
Mon 09:50:06 PM 39.9583 -104.3531 84° East 296 341 9,900 508 Climbing Denver Center
Mon 09:51:08 PM 39.9669 -104.2203 85° East 353 406 10,700 1,654 Climbing Denver Center
Mon 09:52:00 PM 40.0061 -103.7983 66° East  Level FlightAware Approximate
Mon 09:53:11 PM 39.9972 -103.9275 82° East 399 459 15,000  Level Denver Center
Mon 09:54:13 PM 40.0186 -103.7856 79° East 390 449 17,200 1,887 Climbing Denver Center
Mon 09:55:15 PM 40.0347 -103.6858 78° East 376 433 18,900 1,935 Climbing Denver Center
Mon 09:56:17 PM 40.0664 -103.4964 78° East 396 456 21,200 1,887 Climbing Denver Center
Mon 09:57:19 PM 40.0911 -103.3475 78° East 412 474 22,800 1,548 Climbing Denver Center
Mon 09:58:21 PM 40.1142 -103.1942 79° East 424 488 24,400 1,548 Climbing Denver Center
Mon 09:59:23 PM 40.1386 -103.0389 78° East 432 497 26,000 1,500 Climbing Denver Center
Mon 10:00:25 PM 40.1642 -102.8833 78° East 434 499 27,500 1,306 Climbing Denver Center
Mon 10:01:27 PM 40.1878 -102.7231 79° East 444 511 28,700 1,113 Climbing Denver Center
Mon 10:02:29 PM 40.2164 -102.5439 78° East 454 522 29,800 1,016 Climbing Denver Center
Mon 10:03:31 PM 40.2414 -102.3856 78° East 462 532 30,800 1,000 Climbing Denver Center
Mon 10:05:00 PM 40.2692 -102.1656 79° East  Level FlightAware Approximate
Mon 10:05:35 PM 40.2933 -102.0378 79° East 471 542 32,900  Level Denver Center
Mon 10:07:00 PM 40.3189 -101.8275 79° East  Level FlightAware Approximate
Mon 10:07:38 PM 40.3456 -101.6831 79° East 481 554 34,300  Level Denver Center
Mon 10:08:40 PM 40.3733 -101.4881 79° East 487 560 34,800 484 Climbing Denver Center
Mon 10:10:00 PM 40.3937 -101.2904 74° East  Level FlightAware Approximate
Mon 10:10:44 PM 40.4389 -101.1547 74° East 496 571 35,800  Level Denver Center
Mon 10:11:46 PM 40.4786 -100.9631 75° East 490 564 36,400 488 Climbing Denver Center
Mon 10:12:47 PM 40.5125 -100.7989 75° East 491 565 36,800 267 Climbing Denver Center
Mon 10:14:01 PM 40.5497 -100.6083 76° East 487 560 37,000 88 Climbing Denver Center
Mon 10:15:03 PM 40.5947 -100.3844 75° East 500 575 37,000  Level Denver Center
Mon 10:16:05 PM 40.6281 -100.2136 76° East 505 581 37,000  Level Denver Center
Mon 10:17:07 PM 40.6669 -100.0144 76° East 505 581 37,000  Level Denver Center
Mon 10:18:08 PM 40.7036 -99.8267 75° East 509 586 37,000  Level Denver Center
Mon 10:19:10 PM 40.7386 -99.6464 76° East 508 585 37,000  Level Denver Center
Mon 10:20:12 PM 40.7722 -99.4686 76° East 503 579 37,000  Level Denver Center
Mon 10:21:13 PM 40.8058 -99.2886 76° East 507 583 37,000  Level Denver Center
Mon 10:22:15 PM 40.8422 -99.0975 76° East 505 581 37,000  Level Denver Center
Mon 10:22:36 PM 40.8539 -99.0331 77° East 505 581 37,000  Level Minneapolis Center
Mon 10:23:37 PM 40.8858 -98.8536 77° East 504 580 37,000  Level Minneapolis Center
Mon 10:24:38 PM 40.9194 -98.6722 76° East 507 583 37,000  Level Minneapolis Center
Mon 10:25:39 PM 40.9522 -98.4917 76° East 506 582 37,000  Level Minneapolis Center
Mon 10:26:40 PM 40.9889 -98.2906 76° East 505 581 37,000  Level Minneapolis Center
Mon 10:27:42 PM 41.0244 -98.1119 75° East 505 581 37,000  Level Minneapolis Center
Mon 10:28:43 PM 41.0603 -97.9333 75° East 505 581 37,000  Level Minneapolis Center
Mon 10:29:44 PM 41.0956 -97.7531 75° East 506 582 37,000  Level Minneapolis Center
Mon 10:30:45 PM 41.1306 -97.5725 76° East 506 582 37,000  Level Minneapolis Center
Mon 10:31:46 PM 41.1686 -97.3756 76° East 506 582 37,000  Level Minneapolis Center
Mon 10:32:47 PM 41.2039 -97.1961 75° East 504 580 37,000  Level Minneapolis Center
Mon 10:33:49 PM 41.2381 -97.0147 76° East 505 581 37,000  Level Minneapolis Center
Mon 10:34:50 PM 41.2722 -96.8333 76° East 506 582 37,000  Level Minneapolis Center
Mon 10:35:51 PM 41.3058 -96.6531 76° East 505 581 37,000  Level Minneapolis Center
Mon 10:36:52 PM 41.3397 -96.4717 76° East 503 579 37,000  Level Minneapolis Center
Mon 10:37:53 PM 41.3753 -96.2714 77° East 505 581 37,000  Level Minneapolis Center
Mon 10:38:54 PM 41.4086 -96.0911 76° East 503 579 37,000  Level Minneapolis Center
Mon 10:39:55 PM 41.4406 -95.9119 77° East 500 575 37,000  Level Minneapolis Center
Mon 10:40:57 PM 41.4722 -95.7328 77° East 496 571 37,000  Level Minneapolis Center
Mon 10:41:58 PM 41.5025 -95.5569 77° East 496 571 37,000  Level Minneapolis Center
Mon 10:42:59 PM 41.5333 -95.3803 77° East 491 565 37,000  Level Minneapolis Center
Mon 10:44:00 PM 41.5647 -95.2011 77° East 494 568 37,000  Level Minneapolis Center
Mon 10:45:01 PM 41.5939 -95.0258 77° East 487 560 37,000  Level Minneapolis Center
Mon 10:46:02 PM 41.6236 -94.8508 77° East 484 557 37,000  Level Minneapolis Center
Mon 10:47:03 PM 41.6522 -94.6758 78° East 482 555 37,000  Level Minneapolis Center
Mon 10:48:04 PM 41.6819 -94.5019 77° East 482 555 37,000  Level Minneapolis Center
Mon 10:49:06 PM 41.7158 -94.2931 78° East 481 554 37,000  Level Minneapolis Center
Mon 10:50:07 PM 41.7442 -94.1192 78° East 478 550 37,000  Level Minneapolis Center
Mon 10:51:08 PM 41.7719 -93.9450 78° East 478 550 37,000  Level Minneapolis Center
Mon 10:52:09 PM 41.8008 -93.7636 78° East 478 550 37,000  Level Minneapolis Center
Mon 10:53:10 PM 41.8275 -93.5872 78° East 483 556 37,000  Level Minneapolis Center
Mon 10:54:12 PM 41.8553 -93.4108 78° East 486 559 37,000  Level Minneapolis Center
Mon 10:55:13 PM 41.8828 -93.2339 78° East 486 559 37,000  Level Minneapolis Center
Mon 10:56:26 PM 41.9147 -93.0239 78° East 485 558 37,000  Level Minneapolis Center
Mon 10:57:28 PM 41.9408 -92.8522 78° East 481 554 37,000  Level Minneapolis Center
Mon 10:58:29 PM 41.9650 -92.6853 79° East 472 543 37,000  Level Minneapolis Center
Mon 10:59:09 PM 41.9850 -92.5489 79° East 467 537 37,000  Level Chicago Center
Mon 11:00:11 PM 42.0097 -92.3800 79° East 467 537 37,000  Level Chicago Center
Mon 11:01:12 PM 42.0342 -92.2078 79° East 471 542 37,000  Level Chicago Center
Mon 11:02:13 PM 42.0586 -92.0350 79° East 476 548 37,000  Level Chicago Center
Mon 11:03:14 PM 42.0831 -91.8664 79° East 469 540 37,000  Level Chicago Center
Mon 11:04:15 PM 42.1117 -91.6597 79° East 474 545 37,000  Level Chicago Center
Mon 11:05:16 PM 42.1347 -91.4939 79° East 463 533 37,000  Level Chicago Center
Mon 11:06:17 PM 42.1567 -91.3297 80° East 456 525 37,000  Level Chicago Center
Mon 11:07:18 PM 42.1778 -91.1664 80° East 452 520 37,000  Level Chicago Center
Mon 11:08:19 PM 42.2006 -90.9997 79° East 458 527 37,000  Level Chicago Center
Mon 11:09:20 PM 42.2219 -90.8344 80° East 455 524 37,000  Level Chicago Center
Mon 11:10:21 PM 42.2433 -90.6661 80° East 460 529 37,000  Level Chicago Center
Mon 11:11:22 PM 42.2686 -90.4636 80° East 463 533 37,000  Level Chicago Center
Mon 11:12:23 PM 42.2911 -90.2939 80° East 465 535 37,000  Level Chicago Center
Mon 11:13:24 PM 42.3117 -90.1231 81° East 463 533 37,000  Level Chicago Center
Mon 11:14:25 PM 42.3314 -89.9575 81° East 460 529 37,000  Level Chicago Center
Mon 11:15:26 PM 42.3528 -89.7850 80° East 455 524 37,000  Level Chicago Center
Mon 11:16:27 PM 42.3733 -89.6156 81° East 456 525 37,000  Level Chicago Center
Mon 11:17:28 PM 42.3939 -89.4464 81° East 457 526 37,000  Level Chicago Center
Mon 11:18:29 PM 42.4125 -89.2803 81° East 451 519 37,000  Level Chicago Center
Mon 11:19:30 PM 42.4319 -89.1108 81° East 455 524 37,000  Level Chicago Center
Mon 11:20:31 PM 42.4511 -88.9431 81° East 453 521 37,000  Level Chicago Center
Mon 11:21:32 PM 42.4736 -88.7475 81° East 453 521 37,000  Level Chicago Center
Mon 11:22:33 PM 42.4917 -88.5817 82° East 448 516 37,000  Level Chicago Center
Mon 11:23:34 PM 42.5097 -88.4161 82° East 445 512 37,000  Level Chicago Center
Mon 11:24:34 PM 42.5269 -88.2494 82° East 448 516 37,000 -298 Level Chicago Center
Mon 11:25:35 PM 42.5444 -88.0847 82° East 445 512 36,400 -1,033 Descending Chicago Center
Mon 11:26:36 PM 42.5622 -87.9181 82° East 448 516 34,900 -1,475 Descending Chicago Center
Mon 11:27:37 PM 42.5797 -87.7508 82° East 450 518 33,400 -1,721 Descending Chicago Center
Mon 11:28:38 PM 42.5964 -87.5808 82° East 455 524 31,400 -2,016 Descending Chicago Center
Mon 11:29:39 PM 42.6144 -87.4081 82° East 463 533 29,300 -2,213 Descending Chicago Center
Mon 11:30:40 PM 42.6328 -87.2169 83° East 452 520 26,900 -2,213 Descending Chicago Center
Mon 11:31:41 PM 42.6478 -87.0531 83° East 441 507 24,800 -2,311 Descending Chicago Center
Mon 11:32:42 PM 42.6644 -86.8883 82° East 443 510 22,200 -2,803 Descending Chicago Center
Mon 11:33:43 PM 42.6803 -86.7222 83° East 444 511 19,100 -3,000 Descending Chicago Center
Mon 11:34:44 PM 42.6950 -86.5642 83° East 428 493 16,100 -3,000 Descending Chicago Center
Mon 11:35:45 PM 42.7078 -86.4133 83° East 409 471 13,000 -2,705 Descending Chicago Center
Mon 11:36:46 PM 42.7253 -86.2800 80° East 360 414 10,600 -1,869 Descending Chicago Center
Mon 11:37:47 PM 42.7475 -86.1772 74° East 290 334 9,200 -1,918 Descending Chicago Center
Mon 11:38:48 PM 42.7664 -86.0847 74° East 261 300 6,700 -2,033 Descending Chicago Center
Mon 11:39:48 PM 42.7875 -85.9906 73° East 263 303 5,100 -1,438 Descending Chicago Center
Mon 11:40:49 PM 42.8211 -85.8958 64° Northeast 238 274 3,800 -934 Descending Chicago Center
Mon 11:41:50 PM 42.8447 -85.8214 67° East 222 255 3,200 -393 Descending Chicago Center
Mon 11:42:51 PM 42.8531 -85.7458 81° East 208 239 3,000 -248 Descending Chicago Center
Mon 11:43:51 PM 42.8619 -85.6711 81° East 203 234 2,700 -545 Descending Chicago Center
Mon 11:44:52 PM 42.8694 -85.6067 81° East 190 219 1,900 -787 Descending Chicago Center
Mon 11:45:53 PM 42.8750 -85.5550 82° East 161 185 1,100 -541 Descending Chicago Center
Mon 11:46:54 PM 42.8803 -85.5061 82° East 154 177 800 -295 Descending Chicago Center
Mon 11:48:00 PM 42.8667 -85.5167 90° East  Level FlightAware Approximate

Login

Don't have an account? Register now (free) for customized features, flight alerts, and more!